Regional Weather

 

KCRX - Corinth, Mississippi, USA
Distance from station: SW 29mi, 47km
Updated: Sat, 22-Jan-2022 10:55am CST
Clear
Clear
 Wind from WNW
Wind: WNW 6 mph , 9 km/h
Temperature: 28°F , -2°C
Wind Chill: 21°F , -6°C
Dew Point: 14°F , -10°C
Humidity: 55%
Barometer: 30.49 inHg , 1032.5 hPa
Clouds: Clear
Visibility: 10 miles , 16 km
2022/01/22 16:55 KCRX 221655Z AUTO 29005KT 10SM CLR M02/M10 A3049 RMK AO2
KMKL - Jackson, Tennessee, USA
Distance from station: NW 46mi, 73km
Updated: Sat, 22-Jan-2022 10:53am CST
Clear
Clear
 Wind from calm
Wind: Calm
Temperature: 28°F , -2°C
Dew Point: 16°F , -9°C
Humidity: 59%
Barometer: 30.50 inHg , 1032.8 hPa
Clouds: Clear
Visibility: 10 miles , 16 km
2022/01/22 16:53 KMKL 221653Z 00000KT 10SM CLR M02/M09 A3050 RMK AO2 SLP334 T10221094 $
 
KMSL - Muscle Shoal, Alabama, USA
Distance from station: SE 49mi, 79km
Updated: Sat, 22-Jan-2022 10:53am CST
Clear
Clear
 Wind from calm
Wind: Calm
Temperature: 28°F , -2°C
Dew Point: 18°F , -8°C
Humidity: 64%
Barometer: 30.47 inHg , 1031.8 hPa
Clouds: Clear
Visibility: 10 miles , 16 km
2022/01/22 16:53 KMSL 221653Z AUTO 00000KT 10SM CLR M02/M08 A3047 RMK AO2 SLP322 T10221083
KTUP - Tupelo, Mississippi, USA
Distance from station: SSW 72mi, 117km
Updated: Sat, 22-Jan-2022 10:53am CST
Clear
Clear
 Wind from varies
Wind: varies 6 mph , 9 km/h
Temperature: 30°F , -1°C
Wind Chill: 24°F , -4°C
Dew Point: 16°F , -9°C
Humidity: 55%
Barometer: 30.50 inHg , 1032.8 hPa
Clouds: Clear
Visibility: 10 miles , 16 km
2022/01/22 16:53 KTUP 221653Z VRB05KT 10SM CLR M01/M09 A3050 RMK AO2 SLP331 T10111089 $
 
KHSV - Huntsville, Alabama, USA
Distance from station: ESE 92mi, 148km
Updated: Sat, 22-Jan-2022 10:53am CST
Few Clouds
Few Clouds
 Wind from calm
Wind: Calm
Temperature: 28°F , -2°C
Dew Point: 19°F , -7°C
Humidity: 69%
Barometer: 30.44 inHg , 1030.8 hPa
Clouds: Few Clouds
Visibility: 10 miles , 16 km
Cloud details: Few Clouds 2000 ft
2022/01/22 16:53 KHSV 221653Z 00000KT 10SM FEW020 M02/M07 A3044 RMK AO2 SLP313 T10171067
KBNA - Nashville, TN, USA
Distance from station: NE 97mi, 157km
Updated: Sat, 22-Jan-2022 10:53am CST
Few Clouds
Few Clouds
 Wind from NE
Wind: NE 5 mph , 7 km/h
Temperature: 28°F , -2°C
Wind Chill: 22°F , -6°C
Dew Point: 16°F , -9°C
Humidity: 59%
Barometer: 30.46 inHg , 1031.5 hPa
Clouds: Few Clouds
Visibility: 10 miles , 16 km
Cloud details: Few Clouds 3500 ft
Few Clouds 10000 ft
2022/01/22 16:53 KBNA 221653Z 05004KT 10SM FEW035 FEW100 M02/M09 A3046 RMK AO2 SLP321 T10221094 $
 
KMEM - Memphis, Tennessee, USA
Distance from station: W 99mi, 159km
Updated: Sat, 22-Jan-2022 10:54am CST
Few Clouds
Few Clouds
 Wind from calm
Wind: Calm
Temperature: 30°F , -1°C
Dew Point: 14°F , -10°C
Humidity: 51%
Barometer: 30.51 inHg , 1033.2 hPa
Clouds: Few Clouds
Visibility: 10 miles , 16 km
Cloud details: Few Clouds 25000 ft
2022/01/22 16:54 KMEM 221654Z 00000KT 10SM FEW250 M01/M10 A3051 RMK AO2 SLP335 T10061100 $
KCKV - Clarksville, TN, USA
Distance from station: NNE 99mi, 159km
Updated: Sat, 22-Jan-2022 10:52am CST
Clear
Clear
 Wind from calm
Wind: Calm
Temperature: 28°F , -2°C
Dew Point: 12°F , -11°C
Humidity: 51%
Barometer: 30.45 inHg , 1031.2 hPa
Clouds: Clear
Visibility: 10 miles , 16 km
2022/01/22 16:52 KCKV 221652Z AUTO 00000KT 10SM CLR M02/M11 A3045 RMK AO2 SLP318 T10221106 TSNO
 
KCHA - Chattanooga, TN, USA
Distance from station: E 165mi, 265km
Updated: Sat, 22-Jan-2022 10:53am CST
Partly cloudy
Partly cloudy
 Wind from calm
Wind: Calm
Temperature: 32°F , 0°C
Dew Point: 19°F , -7°C
Humidity: 60%
Barometer: 30.42 inHg , 1030.1 hPa
Clouds: Partly cloudy
Visibility: 10 miles , 16 km
Cloud details: Partly cloudy 2200 ft
Partly cloudy 20000 ft
2022/01/22 16:53 KCHA 221653Z 00000KT 10SM SCT022 SCT200 00/M07 A3042 RMK AO2 SLP306 T00001067 $
KTYS - Knoxville, TN, USA
Distance from station: E 234mi, 377km
Updated: Sat, 22-Jan-2022 10:53am CST
Mostly cloudy
Mostly cloudy
 Wind from NNE
Wind: NNE 3 mph , 6 km/h
Temperature: 28°F , -2°C
Dew Point: 21°F , -6°C
Humidity: 74%
Barometer: 30.37 inHg , 1028.4 hPa
Clouds: Mostly cloudy
Visibility: 10 miles , 16 km
Cloud details: Mostly cloudy 2000 ft
2022/01/22 16:53 KTYS 221653Z 03003KT 10SM BKN020 M02/M06 A3037 RMK AO2 SLP294 T10171061

Refresh Page for latest data.